Terminal Aerodrome Forecast
Issued by NWS Lake Charles, LA

Home | Current Version | Previous Version | Text Only | Print | Product List | Glossary On
Versions: 1 2 3 4 5 6 7 8 9 10 11 12 13 14 15
000
FTUS44 KLCH 202322
TAFLFT
TAF
KLFT 202322Z 2100/2124 VRB03KT P6SM SCT250
     FM211400 10005KT P6SM SCT200
     FM211800 14009KT P6SM SCT025 BKN040=

USA.gov is the U.S. government's official web portal to all federal, state and local government web resources and services.